Terminal Aerodrome Forecast
Issued by NWS Paducah, KY

Home | Current Version | Previous Version | Text Only | Print | Product List | Glossary On
Versions: 1 2 3 4 5 6 7 8 9 10 11 12 13 14 15 16
000
FTUS43 KPAH 271700
TAFPAH
TAF
KPAH 271720Z 2718/2818 07005KT P6SM SCT250
     FM280100 08003KT P6SM SKC
     FM280900 00000KT 4SM BR SCT050
      TEMPO 2809/2812 2SM BR MIFG
     FM281330 VRB03KT P6SM BKN050=

USA.gov is the U.S. government's official web portal to all federal, state and local government web resources and services.